Time;durP1;ratioP1;P1;durP2;ratioP2;P2;SDS_P1;SDS_P2;PMS_P1;PMS_P2;Temp;Humidity;BMP_temperature;BMP_pressure;BME280_temperature;BME280_humidity;BME280_pressure;Samples;Min_cycle;Max_cycle;Signal;HPM_P1;HPM_P2
2023/09/06 00:00:55;;;;;;;20.93;19.73;;;;;;;;;;5094276;28;20931;-80
2023/09/06 00:03:27;;;;;;;21.77;20.27;;;;;;;;;;5094690;28;20473;-81
2023/09/06 00:05:54;;;;;;;20.17;19.07;;;;;;;;;;5094788;28;20825;-81
2023/09/06 00:08:21;;;;;;;20.93;19.63;;;;;;;;;;5093559;27;20458;-81
2023/09/06 00:10:48;;;;;;;20.83;19.80;;;;;;;;;;5093653;28;20492;-81
2023/09/06 00:13:16;;;;;;;20.40;19.20;;;;;;;;;;5093914;28;20521;-80
2023/09/06 00:15:45;;;;;;;20.90;19.70;;;;;;;;;;5094334;28;20426;-81
2023/09/06 00:18:12;;;;;;;20.67;19.67;;;;;;;;;;5094398;28;20452;-80
2023/09/06 00:20:40;;;;;;;21.87;20.50;;;;;;;;;;5093730;28;20548;-82
2023/09/06 00:23:09;;;;;;;20.80;19.67;;;;;;;;;;5094855;28;20581;-80
2023/09/06 00:25:36;;;;;;;21.33;20.23;;;;;;;;;;5094044;28;20971;-81
2023/09/06 00:28:04;;;;;;;21.73;20.13;;;;;;;;;;5097554;28;20449;-81
2023/09/06 00:30:31;;;;;;;20.87;19.73;;;;;;;;;;5097290;28;20984;-81
2023/09/06 00:32:59;;;;;;;20.77;19.70;;;;;;;;;;5097800;28;20443;-81
2023/09/06 00:35:26;;;;;;;20.87;19.67;;;;;;;;;;5098220;28;20437;-82
2023/09/06 00:37:55;;;;;;;21.77;20.47;;;;;;;;;;5098125;28;20444;-81
2023/09/06 00:40:23;;;;;;;19.40;18.40;;;;;;;;;;5097969;28;20423;-82
2023/09/06 00:42:51;;;;;;;19.90;18.70;;;;;;;;;;5098184;28;20471;-81
2023/09/06 00:45:22;;;;;;;20.83;19.63;;;;;;;;;;5097876;28;20844;-81
2023/09/06 00:47:49;;;;;;;20.93;19.83;;;;;;;;;;5098132;28;20927;-82
2023/09/06 00:50:17;;;;;;;20.50;19.50;;;;;;;;;;5097039;28;20481;-82
2023/09/06 00:52:44;;;;;;;20.67;19.20;;;;;;;;;;5096899;28;20554;-81
2023/09/06 00:55:13;;;;;;;20.33;19.30;;;;;;;;;;5097641;28;20437;-81
2023/09/06 00:57:41;;;;;;;20.37;19.07;;;;;;;;;;5097656;28;20824;-82
2023/09/06 01:00:14;;;;;;;19.70;18.70;;;;;;;;;;5097589;28;20467;-81
2023/09/06 01:02:41;;;;;;;20.20;19.00;;;;;;;;;;5097163;28;20500;-81
2023/09/06 01:05:09;;;;;;;20.07;18.87;;;;;;;;;;5098013;28;20441;-81
2023/09/06 01:07:37;;;;;;;20.20;18.90;;;;;;;;;;5097952;28;20433;-81
2023/09/06 01:10:04;;;;;;;20.67;19.20;;;;;;;;;;5097144;28;20455;-81
2023/09/06 01:12:34;;;;;;;20.73;19.50;;;;;;;;;;5097615;28;20539;-82
2023/09/06 01:15:01;;;;;;;19.37;18.37;;;;;;;;;;5097425;28;20487;-81
2023/09/06 01:17:29;;;;;;;20.00;19.00;;;;;;;;;;5096677;28;20835;-80
2023/09/06 01:20:09;;;;;;;20.47;19.17;;;;;;;;;;5096663;28;20448;-81
2023/09/06 01:22:38;;;;;;;21.17;19.70;;;;;;;;;;5090039;28;20558;-82
2023/09/06 01:25:08;;;;;;;20.67;19.50;;;;;;;;;;5095001;28;20449;-81
2023/09/06 01:27:35;;;;;;;21.40;20.00;;;;;;;;;;5097570;28;20423;-81
2023/09/06 01:30:03;;;;;;;20.23;19.23;;;;;;;;;;5096718;28;20506;-81
2023/09/06 01:32:30;;;;;;;21.10;19.60;;;;;;;;;;5096470;28;20497;-81
2023/09/06 01:34:57;;;;;;;19.27;18.27;;;;;;;;;;5097252;28;20536;-81
2023/09/06 01:37:24;;;;;;;19.97;18.80;;;;;;;;;;5096705;28;20461;-81
2023/09/06 01:39:51;;;;;;;20.53;19.43;;;;;;;;;;5095752;28;20445;-81
2023/09/06 01:42:22;;;;;;;19.77;18.77;;;;;;;;;;5096928;28;21045;-82
2023/09/06 01:44:49;;;;;;;20.63;19.43;;;;;;;;;;5096662;28;20415;-82
2023/09/06 01:47:16;;;;;;;20.63;19.40;;;;;;;;;;5097052;28;20419;-81
2023/09/06 01:49:44;;;;;;;20.03;19.03;;;;;;;;;;5096300;28;20936;-82
2023/09/06 01:52:11;;;;;;;20.73;19.73;;;;;;;;;;5096691;28;20444;-81
2023/09/06 01:54:38;;;;;;;20.13;19.13;;;;;;;;;;5096213;28;20432;-81
2023/09/06 01:57:06;;;;;;;20.97;19.53;;;;;;;;;;5096078;28;20968;-81
2023/09/06 01:59:34;;;;;;;19.90;18.90;;;;;;;;;;5096478;28;20419;-81
2023/09/06 02:02:04;;;;;;;20.57;19.37;;;;;;;;;;5095724;28;20546;-81
2023/09/06 02:04:31;;;;;;;20.50;18.90;;;;;;;;;;5095927;28;21001;-80
2023/09/06 02:06:58;;;;;;;20.80;19.60;;;;;;;;;;5095839;28;20437;-81
2023/09/06 02:09:26;;;;;;;19.83;18.83;;;;;;;;;;5096809;28;20445;-82
2023/09/06 02:11:55;;;;;;;20.87;19.53;;;;;;;;;;5095816;28;20484;-81
2023/09/06 02:14:22;;;;;;;20.43;19.10;;;;;;;;;;5095958;28;20420;-81
2023/09/06 02:16:51;;;;;;;20.10;19.10;;;;;;;;;;5095633;28;20540;-81
2023/09/06 02:19:19;;;;;;;20.37;19.17;;;;;;;;;;5096216;28;20473;-81
2023/09/06 02:21:46;;;;;;;20.33;19.33;;;;;;;;;;5095224;28;20557;-81
2023/09/06 02:24:13;;;;;;;21.17;19.97;;;;;;;;;;5095897;28;20589;-80
2023/09/06 02:26:40;;;;;;;21.20;20.00;;;;;;;;;;5095335;28;20748;-81
2023/09/06 02:29:07;;;;;;;20.27;19.20;;;;;;;;;;5095936;28;20427;-81
2023/09/06 02:31:37;;;;;;;20.73;19.50;;;;;;;;;;5095078;28;20455;-81
2023/09/06 02:34:06;;;;;;;20.53;19.43;;;;;;;;;;5095844;28;20461;-81
2023/09/06 02:36:33;;;;;;;20.83;19.83;;;;;;;;;;5095990;28;20430;-81
2023/09/06 02:39:00;;;;;;;20.37;19.37;;;;;;;;;;5095207;28;20919;-81
2023/09/06 02:41:29;;;;;;;19.73;18.73;;;;;;;;;;5094854;28;20528;-80
2023/09/06 02:43:56;;;;;;;20.97;19.97;;;;;;;;;;5095294;28;20503;-81
2023/09/06 02:46:29;;;;;;;21.80;20.70;;;;;;;;;;5094207;28;20447;-80
2023/09/06 02:48:58;;;;;;;20.77;19.77;;;;;;;;;;5095156;28;20454;-80
2023/09/06 02:51:29;;;;;;;21.30;20.00;;;;;;;;;;5094512;28;20545;-81
2023/09/06 02:53:57;;;;;;;20.70;19.70;;;;;;;;;;5095260;28;20473;-81
2023/09/06 02:56:24;;;;;;;21.43;20.33;;;;;;;;;;5095215;28;20423;-81
2023/09/06 02:58:51;;;;;;;19.97;18.87;;;;;;;;;;5095209;28;20456;-80
2023/09/06 03:01:20;;;;;;;21.00;19.60;;;;;;;;;;5093858;28;20457;-81
2023/09/06 03:03:51;;;;;;;21.27;20.07;;;;;;;;;;5095000;28;20881;-81
2023/09/06 03:06:18;;;;;;;20.50;19.50;;;;;;;;;;5095309;28;20502;-80
2023/09/06 03:08:47;;;;;;;20.73;19.50;;;;;;;;;;5095041;28;20427;-81
2023/09/06 03:11:15;;;;;;;20.97;19.53;;;;;;;;;;5094369;28;20477;-80
2023/09/06 03:13:43;;;;;;;20.40;19.30;;;;;;;;;;5094998;28;20464;-80
2023/09/06 03:16:13;;;;;;;19.87;18.60;;;;;;;;;;5095195;28;20432;-80
2023/09/06 03:18:40;;;;;;;20.60;19.50;;;;;;;;;;5095269;28;20485;-81
2023/09/06 03:21:08;;;;;;;21.30;20.20;;;;;;;;;;5094280;28;20623;-81
2023/09/06 03:23:35;;;;;;;20.80;19.53;;;;;;;;;;5095627;28;20475;-81
2023/09/06 03:26:05;;;;;;;20.23;19.23;;;;;;;;;;5095504;28;20802;-81
2023/09/06 03:28:33;;;;;;;20.67;19.63;;;;;;;;;;5095126;28;20538;-80
2023/09/06 03:31:00;;;;;;;20.33;19.13;;;;;;;;;;5094720;28;20488;-80
2023/09/06 03:33:27;;;;;;;20.30;19.30;;;;;;;;;;5094806;28;20473;-81
2023/09/06 03:35:55;;;;;;;19.80;18.80;;;;;;;;;;5094479;28;20411;-81
2023/09/06 03:38:25;;;;;;;21.20;19.90;;;;;;;;;;5094225;28;20431;-81
2023/09/06 03:40:52;;;;;;;20.97;19.73;;;;;;;;;;5094074;28;20785;-81
2023/09/06 03:43:29;;;;;;;20.13;19.13;;;;;;;;;;5093815;28;20492;-81
2023/09/06 03:45:58;;;;;;;20.73;19.50;;;;;;;;;;5093279;28;20947;-81
2023/09/06 03:48:27;;;;;;;20.67;19.37;;;;;;;;;;5094358;28;20433;-81
2023/09/06 03:50:56;;;;;;;20.30;19.27;;;;;;;;;;5094698;28;20507;-81
2023/09/06 03:53:25;;;;;;;21.33;20.13;;;;;;;;;;5094819;28;20465;-81
2023/09/06 03:55:55;;;;;;;21.57;20.37;;;;;;;;;;5094271;28;20453;-81
2023/09/06 03:58:24;;;;;;;20.60;19.60;;;;;;;;;;5094488;28;20474;-81
2023/09/06 04:00:52;;;;;;;21.07;19.87;;;;;;;;;;5093351;28;20453;-82
2023/09/06 04:03:20;;;;;;;21.70;20.50;;;;;;;;;;5097661;28;20508;-81
2023/09/06 04:05:47;;;;;;;21.80;20.60;;;;;;;;;;5098627;28;20424;-81
2023/09/06 04:08:17;;;;;;;21.17;20.00;;;;;;;;;;5098521;28;20452;-81
2023/09/06 04:10:44;;;;;;;21.00;19.80;;;;;;;;;;5098138;28;20469;-81
2023/09/06 04:13:13;;;;;;;21.83;20.43;;;;;;;;;;5097663;28;20923;-81
2023/09/06 04:15:42;;;;;;;21.63;20.43;;;;;;;;;;5098121;28;20452;-81
2023/09/06 04:18:10;;;;;;;22.97;21.47;;;;;;;;;;5098258;28;20479;-81
2023/09/06 04:20:39;;;;;;;21.23;20.03;;;;;;;;;;5097980;28;20458;-80
2023/09/06 04:23:07;;;;;;;22.77;21.27;;;;;;;;;;5098261;28;20489;-81
2023/09/06 04:25:41;;;;;;;22.60;21.10;;;;;;;;;;5098209;28;20543;-81
2023/09/06 04:28:08;;;;;;;22.80;21.30;;;;;;;;;;5097883;28;20498;-80
2023/09/06 04:30:36;;;;;;;21.87;20.57;;;;;;;;;;5097574;28;20544;-81
2023/09/06 04:33:05;;;;;;;22.40;21.00;;;;;;;;;;5098104;28;20472;-81
2023/09/06 04:35:34;;;;;;;21.87;20.63;;;;;;;;;;5098578;28;20444;-81
2023/09/06 04:38:02;;;;;;;21.67;20.37;;;;;;;;;;5097788;28;20423;-80
2023/09/06 04:40:30;;;;;;;21.27;19.97;;;;;;;;;;5097598;28;20424;-82
2023/09/06 04:42:57;;;;;;;22.17;20.67;;;;;;;;;;5097669;28;20477;-81
2023/09/06 04:45:27;;;;;;;21.17;19.90;;;;;;;;;;5086166;28;20539;-82
2023/09/06 04:47:56;;;;;;;21.03;19.93;;;;;;;;;;5096922;28;20451;-82
2023/09/06 04:50:25;;;;;;;20.70;19.40;;;;;;;;;;5097274;28;20479;-80
2023/09/06 04:52:52;;;;;;;21.00;19.80;;;;;;;;;;5097435;28;21004;-81
2023/09/06 04:55:20;;;;;;;20.93;19.83;;;;;;;;;;5097946;28;20432;-82
2023/09/06 04:57:49;;;;;;;22.00;20.70;;;;;;;;;;5083054;28;20807;-82
2023/09/06 05:00:17;;;;;;;21.87;20.57;;;;;;;;;;5087484;28;20471;-81
2023/09/06 05:02:45;;;;;;;22.00;20.70;;;;;;;;;;5086094;28;20479;-81
2023/09/06 05:05:13;;;;;;;22.17;20.87;;;;;;;;;;5076958;28;20452;-81
2023/09/06 05:07:42;;;;;;;22.13;20.93;;;;;;;;;;5077559;28;20475;-82
2023/09/06 05:10:10;;;;;;;22.13;20.70;;;;;;;;;;5079977;28;20461;-82
2023/09/06 05:12:38;;;;;;;22.20;20.90;;;;;;;;;;5081888;28;20470;-81
2023/09/06 05:15:05;;;;;;;22.70;21.40;;;;;;;;;;5089802;28;20507;-81
2023/09/06 05:17:33;;;;;;;21.90;20.80;;;;;;;;;;5077189;28;20829;-81
2023/09/06 05:20:15;;;;;;;22.47;21.17;;;;;;;;;;5075970;28;20438;-82
2023/09/06 05:22:44;;;;;;;25.00;23.30;;;;;;;;;;5076417;28;20428;-81
2023/09/06 05:25:11;;;;;;;21.13;19.97;;;;;;;;;;5082084;27;20476;-81
2023/09/06 05:27:38;;;;;;;22.20;20.70;;;;;;;;;;5079444;28;20482;-80
2023/09/06 05:30:06;;;;;;;21.97;20.67;;;;;;;;;;5076444;28;20416;-81
2023/09/06 05:32:33;;;;;;;22.57;21.07;;;;;;;;;;5077195;28;21055;-81
2023/09/06 05:35:00;;;;;;;21.73;20.53;;;;;;;;;;5081715;28;20423;-81
2023/09/06 05:37:27;;;;;;;21.50;20.30;;;;;;;;;;5096812;28;20428;-81
2023/09/06 05:39:56;;;;;;;21.93;20.57;;;;;;;;;;5096017;28;20427;-81
2023/09/06 05:42:23;;;;;;;21.03;19.83;;;;;;;;;;5096582;28;20447;-81
2023/09/06 05:44:50;;;;;;;22.33;20.93;;;;;;;;;;5096897;28;20449;-81
2023/09/06 05:47:17;;;;;;;22.00;20.70;;;;;;;;;;5096804;28;20415;-80
2023/09/06 05:49:46;;;;;;;22.07;20.80;;;;;;;;;;5096063;28;20452;-81
2023/09/06 05:52:13;;;;;;;21.40;20.27;;;;;;;;;;5097036;28;20452;-82
2023/09/06 05:54:40;;;;;;;20.47;19.20;;;;;;;;;;5096432;28;20419;-82
2023/09/06 05:57:09;;;;;;;21.70;20.47;;;;;;;;;;5096618;28;20456;-80
2023/09/06 05:59:36;;;;;;;20.40;19.20;;;;;;;;;;5097063;28;20468;-83
2023/09/06 06:02:03;;;;;;;21.37;20.10;;;;;;;;;;5095658;28;20527;-82
2023/09/06 06:04:31;;;;;;;20.83;19.73;;;;;;;;;;5096061;28;20443;-80
2023/09/06 06:06:58;;;;;;;20.80;19.43;;;;;;;;;;5096699;28;20843;-79
2023/09/06 06:09:27;;;;;;;19.97;18.97;;;;;;;;;;5096177;28;20430;-81
2023/09/06 06:11:54;;;;;;;20.73;19.40;;;;;;;;;;5095711;28;20498;-81
2023/09/06 06:14:25;;;;;;;20.17;19.07;;;;;;;;;;5096349;28;20415;-82
2023/09/06 06:16:52;;;;;;;20.17;19.07;;;;;;;;;;5096411;28;21110;-81
2023/09/06 06:19:19;;;;;;;20.30;19.20;;;;;;;;;;5096803;28;20475;-80
2023/09/06 06:21:46;;;;;;;20.33;19.00;;;;;;;;;;5095706;28;20449;-81
2023/09/06 06:24:14;;;;;;;26.03;24.30;;;;;;;;;;5097023;28;20464;-81
2023/09/06 06:26:42;;;;;;;20.23;18.77;;;;;;;;;;5096249;28;20544;-80
2023/09/06 06:29:09;;;;;;;19.97;18.87;;;;;;;;;;5096054;28;20522;-80
2023/09/06 06:31:38;;;;;;;19.33;18.20;;;;;;;;;;5095433;28;20481;-81
2023/09/06 06:34:05;;;;;;;19.63;18.60;;;;;;;;;;5095470;28;20472;-82
2023/09/06 06:36:32;;;;;;;19.70;18.70;;;;;;;;;;5095678;28;20588;-81
2023/09/06 06:38:59;;;;;;;20.17;18.90;;;;;;;;;;5096022;28;20441;-81
2023/09/06 06:41:27;;;;;;;19.93;18.73;;;;;;;;;;5095078;28;20434;-80
2023/09/06 06:43:54;;;;;;;20.27;18.97;;;;;;;;;;5095756;28;20468;-81
2023/09/06 06:46:25;;;;;;;19.33;18.30;;;;;;;;;;5095341;28;20526;-81
2023/09/06 06:48:54;;;;;;;19.90;18.53;;;;;;;;;;5086813;28;21234;-80
2023/09/06 06:51:21;;;;;;;19.57;18.57;;;;;;;;;;5094056;28;20456;-80
2023/09/06 06:53:48;;;;;;;20.53;19.33;;;;;;;;;;5094738;27;20487;-81
2023/09/06 06:56:21;;;;;;;20.77;19.67;;;;;;;;;;5095506;28;20433;-81
2023/09/06 06:58:48;;;;;;;21.30;20.03;;;;;;;;;;5095295;28;20427;-79
2023/09/06 07:01:15;;;;;;;20.37;19.27;;;;;;;;;;5095106;28;20835;-81
2023/09/06 07:03:42;;;;;;;20.40;19.30;;;;;;;;;;5097769;28;20465;-81
2023/09/06 07:06:11;;;;;;;20.23;19.23;;;;;;;;;;5095184;28;20456;-84
2023/09/06 07:08:38;;;;;;;20.77;19.67;;;;;;;;;;5095444;28;20504;-81
2023/09/06 07:11:06;;;;;;;20.90;19.70;;;;;;;;;;5079159;28;20428;-81
2023/09/06 07:13:34;;;;;;;20.00;19.00;;;;;;;;;;5094148;28;20503;-80
2023/09/06 07:16:03;;;;;;;21.43;20.23;;;;;;;;;;5094750;28;20426;-81
2023/09/06 07:18:30;;;;;;;21.07;19.87;;;;;;;;;;5084186;28;20548;-81
2023/09/06 07:20:57;;;;;;;21.20;20.10;;;;;;;;;;5074298;28;20607;-82
2023/09/06 07:23:26;;;;;;;21.87;20.37;;;;;;;;;;5087416;28;20480;-81
2023/09/06 07:25:53;;;;;;;21.13;19.90;;;;;;;;;;5095424;28;20779;-81
2023/09/06 07:28:23;;;;;;;20.60;19.30;;;;;;;;;;5094667;28;20506;-81
2023/09/06 07:30:50;;;;;;;20.50;19.20;;;;;;;;;;5094240;28;20435;-82
2023/09/06 07:33:18;;;;;;;19.90;18.80;;;;;;;;;;5092888;28;20483;-81
2023/09/06 07:35:45;;;;;;;21.70;20.30;;;;;;;;;;5075450;28;20425;-81
2023/09/06 07:38:12;;;;;;;21.27;20.07;;;;;;;;;;5094047;28;20419;-81
2023/09/06 07:40:40;;;;;;;21.50;20.20;;;;;;;;;;5093683;28;20972;-81
2023/09/06 07:43:07;;;;;;;20.83;19.73;;;;;;;;;;5094298;28;20518;-80
2023/09/06 07:45:36;;;;;;;20.70;19.60;;;;;;;;;;5094141;28;20431;-81
2023/09/06 07:48:04;;;;;;;22.27;20.87;;;;;;;;;;5094934;28;20423;-82
2023/09/06 07:50:32;;;;;;;21.70;20.50;;;;;;;;;;5084490;28;20969;-81
2023/09/06 07:52:59;;;;;;;22.03;20.73;;;;;;;;;;5095000;28;20496;-80
2023/09/06 07:55:27;;;;;;;21.80;20.20;;;;;;;;;;5083717;28;20449;-83
2023/09/06 07:57:56;;;;;;;21.63;20.33;;;;;;;;;;5084398;28;20540;-82
2023/09/06 08:00:23;;;;;;;21.20;20.00;;;;;;;;;;5080031;28;20522;-77
2023/09/06 08:02:50;;;;;;;21.23;19.87;;;;;;;;;;5090519;28;20469;-76
2023/09/06 08:05:17;;;;;;;21.80;20.60;;;;;;;;;;5090021;28;20449;-77
2023/09/06 08:07:44;;;;;;;21.67;20.20;;;;;;;;;;5090462;28;20467;-76
2023/09/06 08:10:13;;;;;;;21.83;20.43;;;;;;;;;;5090228;28;20437;-75
2023/09/06 08:12:40;;;;;;;21.40;19.90;;;;;;;;;;5090292;28;21210;-76
2023/09/06 08:15:09;;;;;;;21.50;20.10;;;;;;;;;;5090766;28;20445;-76
2023/09/06 08:17:36;;;;;;;20.70;19.40;;;;;;;;;;5090465;28;20449;-75
2023/09/06 08:20:04;;;;;;;21.93;20.17;;;;;;;;;;5089658;28;21324;-76
2023/09/06 08:22:32;;;;;;;21.60;20.20;;;;;;;;;;5090440;28;20471;-77
2023/09/06 08:24:59;;;;;;;20.77;19.67;;;;;;;;;;5090136;28;20889;-75
2023/09/06 08:27:26;;;;;;;21.40;20.20;;;;;;;;;;5090120;28;20448;-75
2023/09/06 08:29:53;;;;;;;21.20;20.10;;;;;;;;;;5089439;28;20922;-76
2023/09/06 08:32:21;;;;;;;20.83;19.73;;;;;;;;;;5089822;28;20496;-75
2023/09/06 08:34:49;;;;;;;21.63;20.33;;;;;;;;;;5090269;28;20444;-76
2023/09/06 08:37:16;;;;;;;22.40;21.10;;;;;;;;;;5090033;28;20591;-76
2023/09/06 08:39:43;;;;;;;21.50;20.20;;;;;;;;;;5089853;28;20453;-76
2023/09/06 08:42:10;;;;;;;21.10;19.80;;;;;;;;;;5090059;28;20441;-76
2023/09/06 08:44:39;;;;;;;21.30;20.10;;;;;;;;;;5090079;28;20415;-76
2023/09/06 08:47:09;;;;;;;21.80;20.50;;;;;;;;;;5090128;28;20475;-75
2023/09/06 08:49:38;;;;;;;21.60;20.30;;;;;;;;;;5093054;28;20445;-76
2023/09/06 08:52:06;;;;;;;21.90;20.70;;;;;;;;;;5092959;28;21306;-75
2023/09/06 08:54:34;;;;;;;21.93;20.73;;;;;;;;;;5093824;28;20441;-76
2023/09/06 08:57:02;;;;;;;22.10;20.80;;;;;;;;;;5093251;28;20451;-77
2023/09/06 08:59:32;;;;;;;22.10;20.80;;;;;;;;;;5093189;28;20845;-76
2023/09/06 09:01:59;;;;;;;22.40;21.00;;;;;;;;;;5092326;28;20838;-77
2023/09/06 09:04:26;;;;;;;21.57;20.10;;;;;;;;;;5093242;28;21014;-76
2023/09/06 09:06:54;;;;;;;22.33;20.83;;;;;;;;;;5093254;28;20793;-76
2023/09/06 09:09:21;;;;;;;21.63;20.43;;;;;;;;;;5093006;28;20476;-76
2023/09/06 09:11:51;;;;;;;22.10;20.50;;;;;;;;;;5092692;28;20427;-75
2023/09/06 09:14:22;;;;;;;21.90;20.50;;;;;;;;;;5093133;28;20899;-76
2023/09/06 09:16:56;;;;;;;21.53;20.20;;;;;;;;;;5093054;28;20460;-76
2023/09/06 09:19:23;;;;;;;22.67;21.13;;;;;;;;;;5093159;28;20492;-76
2023/09/06 09:21:51;;;;;;;23.90;22.50;;;;;;;;;;5092185;28;20494;-77
2023/09/06 09:24:26;;;;;;;23.43;22.13;;;;;;;;;;5093058;28;20468;-77
2023/09/06 09:26:54;;;;;;;23.20;21.80;;;;;;;;;;5092904;28;20447;-77
2023/09/06 09:29:21;;;;;;;23.27;21.80;;;;;;;;;;5092823;28;21031;-76
2023/09/06 09:31:48;;;;;;;22.73;21.43;;;;;;;;;;5092289;28;20463;-77
2023/09/06 09:34:15;;;;;;;23.17;21.77;;;;;;;;;;5092438;28;20497;-76
2023/09/06 09:36:50;;;;;;;22.53;21.23;;;;;;;;;;5092684;28;20859;-76
2023/09/06 09:39:18;;;;;;;24.30;22.60;;;;;;;;;;5092926;28;20535;-77
2023/09/06 09:41:47;;;;;;;23.10;21.60;;;;;;;;;;5092213;28;20459;-77
2023/09/06 09:44:15;;;;;;;23.20;21.80;;;;;;;;;;5093006;28;20537;-86
2023/09/06 09:46:43;;;;;;;22.93;21.53;;;;;;;;;;5089602;28;20822;-76
2023/09/06 09:49:11;;;;;;;23.47;21.87;;;;;;;;;;5072598;28;20482;-77
2023/09/06 09:51:39;;;;;;;22.80;21.50;;;;;;;;;;5090224;28;20510;-76
2023/09/06 09:54:06;;;;;;;23.13;21.73;;;;;;;;;;5079694;28;20482;-77
2023/09/06 09:56:34;;;;;;;23.47;21.97;;;;;;;;;;5072803;28;20460;-79
2023/09/06 09:59:04;;;;;;;23.00;21.60;;;;;;;;;;5076444;28;20960;-79
2023/09/06 10:01:32;;;;;;;23.83;22.30;;;;;;;;;;5077626;28;20547;-78
2023/09/06 10:03:59;;;;;;;23.37;21.97;;;;;;;;;;5092377;28;20469;-78
2023/09/06 10:06:28;;;;;;;23.70;22.27;;;;;;;;;;5073102;28;20417;-78
2023/09/06 10:08:57;;;;;;;23.87;22.37;;;;;;;;;;5075174;27;20846;-78
2023/09/06 10:11:24;;;;;;;23.00;21.70;;;;;;;;;;5088855;28;20432;-79
2023/09/06 10:13:51;;;;;;;23.97;22.50;;;;;;;;;;5079664;28;20475;-79
2023/09/06 10:16:20;;;;;;;23.87;22.37;;;;;;;;;;5086298;28;20458;-78
2023/09/06 10:18:48;;;;;;;23.20;21.80;;;;;;;;;;5093098;28;20971;-78
2023/09/06 10:21:16;;;;;;;25.43;23.73;;;;;;;;;;5089335;28;20455;-78
2023/09/06 10:23:43;;;;;;;23.97;22.57;;;;;;;;;;5090683;28;20447;-79
2023/09/06 10:26:10;;;;;;;24.40;23.00;;;;;;;;;;5094929;28;20441;-79
2023/09/06 10:28:37;;;;;;;25.17;23.77;;;;;;;;;;5094145;28;20456;-79
2023/09/06 10:31:10;;;;;;;23.47;22.17;;;;;;;;;;5092882;28;20445;-79
2023/09/06 10:33:57;;;;;;;25.00;23.50;;;;;;;;;;5094763;28;20467;-79
2023/09/06 10:36:27;;;;;;;23.70;22.20;;;;;;;;;;5094107;28;20439;-78
2023/09/06 10:39:16;;;;;;;24.07;22.67;;;;;;;;;;5094086;28;20471;-79
2023/09/06 10:42:02;;;;;;;25.00;23.40;;;;;;;;;;5092869;28;20448;-78
2023/09/06 10:44:30;;;;;;;25.17;23.67;;;;;;;;;;5073677;28;20448;-79
2023/09/06 10:46:57;;;;;;;24.23;22.90;;;;;;;;;;5073820;28;20527;-77
2023/09/06 10:49:26;;;;;;;24.40;22.83;;;;;;;;;;5073336;28;20461;-79
2023/09/06 10:52:01;;;;;;;25.33;23.57;;;;;;;;;;5073245;28;20475;-80
2023/09/06 10:54:34;;;;;;;24.63;23.10;;;;;;;;;;5072672;28;21045;-78
2023/09/06 10:57:05;;;;;;;24.10;22.50;;;;;;;;;;5074461;28;20434;-78
2023/09/06 10:59:33;;;;;;;24.13;22.63;;;;;;;;;;5073261;28;20490;-78
2023/09/06 11:02:16;;;;;;;24.80;23.20;;;;;;;;;;5072218;28;21159;-78
2023/09/06 11:04:45;;;;;;;23.70;22.30;;;;;;;;;;5085762;28;20487;-78
2023/09/06 11:07:12;;;;;;;25.03;23.43;;;;;;;;;;5087076;28;20954;-78
2023/09/06 11:09:43;;;;;;;24.27;22.57;;;;;;;;;;5081896;28;20445;-80
2023/09/06 11:12:11;;;;;;;24.03;22.53;;;;;;;;;;5086293;28;20880;-79
2023/09/06 11:14:38;;;;;;;23.77;22.37;;;;;;;;;;5083322;28;20491;-80
2023/09/06 11:17:05;;;;;;;24.07;22.67;;;;;;;;;;5087094;28;20566;-78
2023/09/06 11:19:34;;;;;;;23.93;22.33;;;;;;;;;;5082690;28;20454;-79
2023/09/06 11:22:06;;;;;;;24.27;22.57;;;;;;;;;;5085819;28;21603;-79
2023/09/06 11:24:34;;;;;;;23.13;21.63;;;;;;;;;;5092895;28;20810;-79
2023/09/06 11:27:03;;;;;;;23.90;22.40;;;;;;;;;;5093570;28;20419;-79
2023/09/06 11:29:31;;;;;;;23.00;21.30;;;;;;;;;;5092883;28;20455;-78
2023/09/06 11:32:09;;;;;;;23.83;22.43;;;;;;;;;;5092518;28;20498;-79
2023/09/06 11:34:42;;;;;;;23.60;22.10;;;;;;;;;;5092461;28;20955;-79
2023/09/06 11:37:12;;;;;;;23.77;22.37;;;;;;;;;;5093186;28;20460;-79
2023/09/06 11:39:40;;;;;;;24.10;22.50;;;;;;;;;;5092992;28;20447;-80
2023/09/06 11:42:08;;;;;;;24.20;22.70;;;;;;;;;;5092909;28;20468;-79
2023/09/06 11:44:39;;;;;;;23.20;21.80;;;;;;;;;;5093025;28;20437;-80
2023/09/06 11:47:06;;;;;;;23.13;21.73;;;;;;;;;;5087965;28;20420;-79
2023/09/06 11:49:35;;;;;;;23.33;21.73;;;;;;;;;;5081614;28;20454;-80
2023/09/06 11:52:05;;;;;;;23.80;22.30;;;;;;;;;;5091941;28;20424;-79
2023/09/06 11:54:35;;;;;;;24.07;22.57;;;;;;;;;;5092538;28;20542;-79
2023/09/06 11:57:04;;;;;;;23.87;22.37;;;;;;;;;;5093688;28;20457;-79
2023/09/06 11:59:32;;;;;;;23.77;22.27;;;;;;;;;;5093033;28;20452;-79
2023/09/06 12:02:01;;;;;;;23.53;22.13;;;;;;;;;;5091821;28;20467;-79
2023/09/06 12:04:30;;;;;;;23.20;21.80;;;;;;;;;;5093143;28;20937;-79
2023/09/06 12:06:58;;;;;;;23.27;21.87;;;;;;;;;;5093383;28;20456;-78
2023/09/06 12:09:25;;;;;;;23.90;22.50;;;;;;;;;;5092592;28;20473;-78
2023/09/06 12:11:54;;;;;;;24.60;23.10;;;;;;;;;;5091808;28;20456;-78
2023/09/06 12:14:21;;;;;;;23.83;22.43;;;;;;;;;;5091293;28;21010;-79
2023/09/06 12:16:48;;;;;;;23.97;22.27;;;;;;;;;;5092168;28;20452;-79
2023/09/06 12:19:16;;;;;;;23.73;22.33;;;;;;;;;;5092033;28;20804;-79
2023/09/06 12:21:43;;;;;;;24.20;22.70;;;;;;;;;;5091306;28;20495;-80
2023/09/06 12:24:10;;;;;;;24.00;22.60;;;;;;;;;;5094385;28;20456;-78
2023/09/06 12:26:37;;;;;;;24.47;23.07;;;;;;;;;;5096083;28;20430;-78
2023/09/06 12:29:06;;;;;;;24.80;23.13;;;;;;;;;;5092347;28;20832;-79
2023/09/06 12:31:33;;;;;;;24.23;22.37;;;;;;;;;;5087335;28;21054;-78
2023/09/06 12:34:00;;;;;;;24.70;23.00;;;;;;;;;;5087992;28;20485;-78
2023/09/06 12:36:27;;;;;;;24.37;22.87;;;;;;;;;;5086291;28;20445;-79
2023/09/06 12:38:54;;;;;;;23.50;22.10;;;;;;;;;;5090532;28;20532;-79
2023/09/06 12:41:21;;;;;;;23.50;22.10;;;;;;;;;;5084692;28;20453;-80
2023/09/06 12:43:49;;;;;;;23.47;22.00;;;;;;;;;;5086817;28;20476;-79
2023/09/06 12:46:18;;;;;;;24.13;22.70;;;;;;;;;;5084784;28;20478;-79
2023/09/06 12:48:46;;;;;;;23.73;22.23;;;;;;;;;;5084472;28;20474;-79
2023/09/06 12:51:13;;;;;;;23.70;22.20;;;;;;;;;;5082582;28;20450;-78
2023/09/06 12:53:40;;;;;;;24.17;22.67;;;;;;;;;;5088702;28;20996;-79
2023/09/06 12:56:09;;;;;;;24.57;23.07;;;;;;;;;;5083133;28;20934;-79
2023/09/06 12:58:37;;;;;;;24.37;22.87;;;;;;;;;;5085053;28;20428;-78
2023/09/06 13:01:08;;;;;;;24.93;23.43;;;;;;;;;;5085605;28;20470;-78
2023/09/06 13:03:37;;;;;;;23.70;22.30;;;;;;;;;;5086753;28;20721;-79
2023/09/06 13:06:05;;;;;;;24.20;22.70;;;;;;;;;;5085684;28;20450;-78
2023/09/06 13:08:34;;;;;;;24.30;22.57;;;;;;;;;;5086289;28;20540;-79
2023/09/06 13:11:01;;;;;;;24.20;22.70;;;;;;;;;;5087814;28;20459;-78
2023/09/06 13:13:28;;;;;;;24.27;22.73;;;;;;;;;;5091512;28;20771;-78
2023/09/06 13:15:55;;;;;;;24.50;23.10;;;;;;;;;;5093661;28;20449;-78
2023/09/06 13:18:22;;;;;;;24.73;23.23;;;;;;;;;;5083364;28;20471;-78
2023/09/06 13:20:56;;;;;;;24.93;23.43;;;;;;;;;;5094066;28;20449;-78
2023/09/06 13:23:23;;;;;;;24.87;23.37;;;;;;;;;;5094418;28;20474;-79
2023/09/06 13:25:50;;;;;;;24.43;22.93;;;;;;;;;;5094703;28;20445;-78
2023/09/06 13:28:18;;;;;;;23.93;22.33;;;;;;;;;;5094185;28;20452;-79
2023/09/06 13:30:45;;;;;;;24.27;22.80;;;;;;;;;;5093958;28;20562;-78
2023/09/06 13:33:12;;;;;;;23.80;22.40;;;;;;;;;;5094355;28;20488;-78
2023/09/06 13:35:39;;;;;;;25.03;23.53;;;;;;;;;;5093238;28;20533;-78
2023/09/06 13:38:07;;;;;;;25.10;23.50;;;;;;;;;;5094461;28;20437;-79
2023/09/06 13:40:34;;;;;;;24.90;23.30;;;;;;;;;;5093807;28;20455;-78
2023/09/06 13:43:01;;;;;;;24.20;22.70;;;;;;;;;;5093724;28;20821;-79
2023/09/06 13:45:28;;;;;;;24.90;23.40;;;;;;;;;;5094106;28;20456;-79
2023/09/06 13:47:55;;;;;;;25.07;23.37;;;;;;;;;;5094124;28;20812;-78
2023/09/06 13:50:22;;;;;;;24.00;22.60;;;;;;;;;;5092973;28;20868;-78
2023/09/06 13:52:49;;;;;;;23.87;22.37;;;;;;;;;;5093884;28;20460;-78
2023/09/06 13:55:18;;;;;;;24.10;22.60;;;;;;;;;;5093992;28;20516;-78
2023/09/06 13:57:45;;;;;;;24.40;22.90;;;;;;;;;;5093736;28;20456;-78
2023/09/06 14:00:12;;;;;;;24.67;23.07;;;;;;;;;;5093372;28;20928;-79
2023/09/06 14:02:39;;;;;;;24.40;22.90;;;;;;;;;;5093471;28;20477;-78
2023/09/06 14:05:07;;;;;;;23.90;22.33;;;;;;;;;;5093560;28;20472;-78
2023/09/06 14:07:34;;;;;;;24.67;22.97;;;;;;;;;;5093878;28;20476;-79
2023/09/06 14:10:01;;;;;;;24.07;22.67;;;;;;;;;;5087958;28;20455;-78
2023/09/06 14:12:29;;;;;;;23.70;22.10;;;;;;;;;;5075030;28;20484;-78
2023/09/06 14:14:57;;;;;;;24.47;22.87;;;;;;;;;;5086997;28;20476;-79
2023/09/06 14:17:24;;;;;;;25.07;23.33;;;;;;;;;;5084737;28;20484;-79
2023/09/06 14:19:51;;;;;;;24.60;23.00;;;;;;;;;;5082301;28;20928;-78
2023/09/06 14:22:19;;;;;;;23.33;21.93;;;;;;;;;;5083507;28;21327;-79